Iemanja — WDE8030 — position and weather

sailwx.info

Track history (hours):
 
Tides and Currents Weather Stations Pressure Air Temp Water Temp Dewpoint Dewpoint Depression Visibility Wind Speed Wind Dir Waves Ship Positions

Iemanja

Owner: Gottlieb, James B, Port Washington, NY. More information available from US FCC via Universal Licensing System and Coast Guard Vessel Documentation Center.

Last reported at 2017-Jul-03 19:14 UTC. Time now 2017-Aug-19 14:59 UTC.
Position N 41°17' W 071°29'.
Warning: this ship's position is 46 days out of date.

Length 28 m; draft 0.6 m.

Type: Sailing vessel. MMSI: 366215000.

Date/timePositionNaut miles runAvg speedWind from/ knotsBaromVisibWave heightAir tempDewpointWater temp
2017-Jul-03 19:14N 41°17' W 071°29'2 9.0
2017-Jul-03 19:00N 41°15' W 071°30'5 9.2
2017-Jul-03 18:30N 41°11' W 071°33'1 1.6
2017-Jul-03 18:00N 41°11' W 071°33'0 0.0
2017-Jul-03 17:30N 41°11' W 071°33'0 0.0
2017-Jul-03 17:00N 41°11' W 071°33'0 0.0
2017-Jul-03 16:30N 41°11' W 071°33'0 0.0
2017-Jul-03 16:00N 41°11' W 071°33'0 0.0
2017-Jul-03 15:30N 41°11' W 071°33'0 0.0
2017-Jul-03 15:00N 41°11' W 071°33'0 0.0
2017-Jul-03 11:34N 41°11' W 071°33'0 0.1
2017-Jul-03 11:28N 41°11' W 071°33'0 0.0
2017-Jul-03 10:58N 41°11' W 071°33'0 0.0
2017-Jul-03 10:30N 41°11' W 071°33'0 0.0
2017-Jul-03 02:11N 41°11' W 071°33'0 0.0
2017-Jul-03 01:59N 41°11' W 071°33'0 0.0
2017-Jul-03 01:29N 41°11' W 071°33'0 0.0
2017-Jul-03 00:59N 41°11' W 071°33'0 0.0
2017-Jul-03 00:29N 41°11' W 071°33'0 0.0
2017-Jul-02 23:59N 41°11' W 071°33'0 0.0
2017-Jul-02 23:29N 41°11' W 071°33'0 0.0
2017-Jul-02 23:00N 41°11' W 071°33'0 0.0
2017-Jul-02 22:30N 41°11' W 071°33'0 0.0
2017-Jul-02 21:54N 41°11' W 071°33'0 0.0
2017-Jul-02 21:27N 41°11' W 071°33'0 0.0
2017-Jul-02 20:57N 41°11' W 071°33'0 0.4
2017-Jul-02 20:25N 41°11' W 071°34'0 0.0
2017-Jul-02 19:58N 41°11' W 071°34'0 0.0
2017-Jul-02 19:31N 41°11' W 071°34'0 0.0
2017-Jul-02 19:01N 41°11' W 071°34'0 0.0
2017-Jul-02 18:28N 41°11' W 071°34'0 0.0
2017-Jul-02 17:58N 41°11' W 071°34'0 0.0
2017-Jul-02 17:25N 41°11' W 071°34'0 0.0
2017-Jul-02 16:58N 41°11' W 071°34'0 0.0
2017-Jul-02 16:28N 41°11' W 071°34'0 0.0
2017-Jul-02 15:52N 41°11' W 071°34'1 2.7
2017-Jul-02 15:30N 41°10' W 071°32'4 6.3
2017-Jul-02 14:53N 41°08' W 071°37'  
Track history (hours):
 
Tides and Currents Weather Stations Pressure Air Temp Water Temp Dewpoint Dewpoint Depression Visibility Wind Speed Wind Dir Waves Ship Positions

Iemanja

Owner: Gottlieb, James B, Port Washington, NY. More information available from US FCC via Universal Licensing System and Coast Guard Vessel Documentation Center.

Last reported at 2017-Jul-03 19:14 UTC. Time now 2017-Aug-19 14:59 UTC.
Position N 41°17' W 071°29'.
Warning: this ship's position is 46 days out of date.

Length 28 m; draft 0.6 m.

Type: Sailing vessel. MMSI: 366215000.

Date/timePositionNaut miles runAvg speedWind from/ knotsBaromVisibWave heightAir tempDewpointWater temp
2017-Jul-03 19:14N 41°17' W 071°29'2 9.0
2017-Jul-03 19:00N 41°15' W 071°30'5 9.2
2017-Jul-03 18:30N 41°11' W 071°33'1 1.6
2017-Jul-03 18:00N 41°11' W 071°33'0 0.0
2017-Jul-03 17:30N 41°11' W 071°33'0 0.0
2017-Jul-03 17:00N 41°11' W 071°33'0 0.0
2017-Jul-03 16:30N 41°11' W 071°33'0 0.0
2017-Jul-03 16:00N 41°11' W 071°33'0 0.0
2017-Jul-03 15:30N 41°11' W 071°33'0 0.0
2017-Jul-03 15:00N 41°11' W 071°33'0 0.0
2017-Jul-03 11:34N 41°11' W 071°33'0 0.1
2017-Jul-03 11:28N 41°11' W 071°33'0 0.0
2017-Jul-03 10:58N 41°11' W 071°33'0 0.0
2017-Jul-03 10:30N 41°11' W 071°33'0 0.0
2017-Jul-03 02:11N 41°11' W 071°33'0 0.0
2017-Jul-03 01:59N 41°11' W 071°33'0 0.0
2017-Jul-03 01:29N 41°11' W 071°33'0 0.0
2017-Jul-03 00:59N 41°11' W 071°33'0 0.0
2017-Jul-03 00:29N 41°11' W 071°33'0 0.0
2017-Jul-02 23:59N 41°11' W 071°33'0 0.0
2017-Jul-02 23:29N 41°11' W 071°33'0 0.0
2017-Jul-02 23:00N 41°11' W 071°33'0 0.0
2017-Jul-02 22:30N 41°11' W 071°33'0 0.0
2017-Jul-02 21:54N 41°11' W 071°33'0 0.0
2017-Jul-02 21:27N 41°11' W 071°33'0 0.0
2017-Jul-02 20:57N 41°11' W 071°33'0 0.4
2017-Jul-02 20:25N 41°11' W 071°34'0 0.0
2017-Jul-02 19:58N 41°11' W 071°34'0 0.0
2017-Jul-02 19:31N 41°11' W 071°34'0 0.0
2017-Jul-02 19:01N 41°11' W 071°34'0 0.0
2017-Jul-02 18:28N 41°11' W 071°34'0 0.0
2017-Jul-02 17:58N 41°11' W 071°34'0 0.0
2017-Jul-02 17:25N 41°11' W 071°34'0 0.0
2017-Jul-02 16:58N 41°11' W 071°34'0 0.0
2017-Jul-02 16:28N 41°11' W 071°34'0 0.0
2017-Jul-02 15:52N 41°11' W 071°34'1 2.7
2017-Jul-02 15:30N 41°10' W 071°32'4 6.3
2017-Jul-02 14:53N 41°08' W 071°37'  

Dump ship's entire track history